Time;durP1;ratioP1;P1;durP2;ratioP2;P2;SDS_P1;SDS_P2;PMS_P1;PMS_P2;Temp;Humidity;BMP_temperature;BMP_pressure;BME280_temperature;BME280_humidity;BME280_pressure;Samples;Min_cycle;Max_cycle;Signal;HPM_P1;HPM_P2
2023/06/12 00:00:47;;;;;;;7.70;7.10;;;16.60;77.90;;;;;;5073322;28;20486;-65
2023/06/12 00:03:15;;;;;;;9.13;7.10;;;16.50;82.00;;;;;;5071846;28;20446;-66
2023/06/12 00:05:46;;;;;;;10.43;8.40;;;16.40;80.20;;;;;;5073243;28;20475;-66
2023/06/12 00:08:17;;;;;;;7.97;7.33;;;16.30;80.40;;;;;;5072945;28;20819;-66
2023/06/12 00:10:47;;;;;;;8.43;7.63;;;16.20;84.30;;;;;;5073136;28;20465;-66
2023/06/12 00:13:15;;;;;;;8.87;7.97;;;16.20;86.70;;;;;;5071293;28;20911;-65
2023/06/12 00:15:43;;;;;;;8.17;7.47;;;16.00;85.90;;;;;;5072746;28;20437;-65
2023/06/12 00:18:12;;;;;;;9.20;8.50;;;15.90;89.80;;;;;;5072428;28;20438;-66
2023/06/12 00:20:40;;;;;;;8.50;7.77;;;15.80;91.50;;;;;;5072233;28;20462;-65
2023/06/12 00:23:10;;;;;;;7.33;6.83;;;15.70;88.00;;;;;;5070914;28;20533;-65
2023/06/12 00:25:39;;;;;;;8.40;7.70;;;15.70;88.50;;;;;;5072220;28;20539;-64
2023/06/12 00:28:07;;;;;;;8.50;7.80;;;15.60;92.60;;;;;;5072291;28;20473;-65
2023/06/12 00:30:35;;;;;;;8.93;8.33;;;15.50;93.00;;;;;;5070664;28;20528;-65
2023/06/12 00:33:03;;;;;;;9.13;8.43;;;15.50;93.80;;;;;;5071034;28;20454;-65
2023/06/12 00:35:31;;;;;;;9.47;8.67;;;15.30;92.80;;;;;;5071641;28;20525;-65
2023/06/12 00:37:59;;;;;;;7.80;7.10;;;15.20;93.70;;;;;;5072046;28;21000;-65
2023/06/12 00:40:29;;;;;;;8.10;7.40;;;15.10;92.80;;;;;;5072036;28;21187;-65
2023/06/12 00:42:56;;;;;;;8.50;7.90;;;15.10;92.90;;;;;;5070917;28;20431;-65
2023/06/12 00:45:26;;;;;;;8.27;7.47;;;15.10;92.80;;;;;;5071639;28;20504;-65
2023/06/12 00:47:56;;;;;;;8.87;7.97;;;15.10;94.30;;;;;;5071865;28;20441;-65
2023/06/12 00:50:27;;;;;;;9.20;8.30;;;15.20;95.20;;;;;;5072161;28;20460;-65
2023/06/12 00:52:58;;;;;;;7.73;6.93;;;15.20;95.50;;;;;;5070609;28;20502;-65
2023/06/12 00:55:30;;;;;;;8.10;7.10;;;15.20;92.50;;;;;;5071873;28;20942;-65
2023/06/12 00:57:58;;;;;;;8.87;8.17;;;15.20;92.30;;;;;;5071678;28;20492;-65
2023/06/12 01:00:27;;;;;;;9.27;8.33;;;15.10;93.50;;;;;;5071876;28;20455;-65
2023/06/12 01:03:03;;;;;;;8.10;7.40;;;15.10;93.40;;;;;;5070855;28;20479;-65
2023/06/12 01:05:34;;;;;;;8.40;7.70;;;15.10;92.30;;;;;;5071683;28;20444;-65
2023/06/12 01:08:15;;;;;;;8.73;7.40;;;15.10;94.20;;;;;;5071448;28;21202;-66
2023/06/12 01:10:51;;;;;;;9.13;8.33;;;15.00;93.00;;;;;;5071702;28;20552;-65
2023/06/12 01:13:20;;;;;;;10.47;8.10;;;14.90;95.20;;;;;;5070011;28;20474;-65
2023/06/12 01:15:48;;;;;;;9.30;8.50;;;14.90;95.00;;;;;;5071580;28;20889;-66
2023/06/12 01:18:20;;;;;;;8.90;8.00;;;14.90;95.60;;;;;;5071165;28;20526;-66
2023/06/12 01:20:49;;;;;;;9.10;7.90;;;14.90;96.30;;;;;;5071272;28;20451;-65
2023/06/12 01:23:43;;;;;;;8.40;7.80;;;14.90;96.90;;;;;;5070167;28;20534;-66
2023/06/12 01:26:25;;;;;;;8.57;7.87;;;14.80;95.50;;;;;;5071206;28;20549;-65
2023/06/12 01:29:30;;;;;;;8.83;8.03;;;14.70;95.30;;;;;;5071172;28;20465;-65
2023/06/12 01:32:02;;;;;;;8.60;7.90;;;14.60;94.90;;;;;;5048373;28;20444;-66
2023/06/12 01:34:37;;;;;;;9.00;8.30;;;14.80;94.30;;;;;;5070179;28;20464;-66
2023/06/12 01:37:21;;;;;;;9.37;8.50;;;14.90;94.30;;;;;;5071020;28;20437;-65
2023/06/12 01:39:56;;;;;;;8.73;8.03;;;15.00;93.90;;;;;;5070848;28;20456;-66
2023/06/12 01:42:27;;;;;;;9.10;8.40;;;15.00;93.60;;;;;;5069319;28;20439;-65
2023/06/12 01:44:55;;;;;;;9.30;8.60;;;15.00;96.70;;;;;;5070578;28;20462;-65
2023/06/12 01:47:25;;;;;;;9.40;8.60;;;14.90;98.40;;;;;;5070341;28;20480;-65
2023/06/12 01:49:53;;;;;;;10.53;8.40;;;14.80;96.70;;;;;;5070572;28;20553;-66
2023/06/12 01:52:21;;;;;;;9.13;8.40;;;14.70;95.60;;;;;;5069838;28;20473;-65
2023/06/12 01:54:49;;;;;;;8.47;7.83;;;14.70;95.70;;;;;;5069645;28;20861;-65
2023/06/12 01:57:19;;;;;;;8.70;7.90;;;14.70;95.30;;;;;;5070441;28;20445;-65
2023/06/12 01:59:48;;;;;;;9.53;8.73;;;14.60;96.80;;;;;;5070828;28;20474;-65
2023/06/12 02:02:16;;;;;;;8.40;7.67;;;14.60;98.80;;;;;;5069031;28;20459;-64
2023/06/12 02:04:46;;;;;;;9.67;8.77;;;14.60;98.30;;;;;;5069415;28;20500;-65
2023/06/12 02:07:14;;;;;;;8.80;8.13;;;14.60;98.10;;;;;;5070359;28;20474;-65
2023/06/12 02:09:42;;;;;;;8.87;8.07;;;14.50;96.40;;;;;;5069934;28;20996;-65
2023/06/12 02:12:11;;;;;;;10.23;9.30;;;14.50;99.10;;;;;;5069896;28;20447;-65
2023/06/12 02:14:41;;;;;;;9.90;9.10;;;14.40;99.90;;;;;;5069236;28;20446;-65
2023/06/12 02:17:09;;;;;;;8.70;8.00;;;14.40;99.90;;;;;;5070036;28;20431;-65
2023/06/12 02:19:37;;;;;;;8.90;8.00;;;14.40;99.40;;;;;;5069625;28;20485;-65
2023/06/12 02:22:06;;;;;;;9.90;8.30;;;14.40;98.50;;;;;;5069620;28;20450;-65
2023/06/12 02:24:35;;;;;;;8.10;7.40;;;14.30;98.10;;;;;;5069088;28;20471;-66
2023/06/12 02:27:03;;;;;;;8.33;7.63;;;14.30;95.70;;;;;;5069879;28;20993;-66
2023/06/12 02:29:31;;;;;;;9.20;8.40;;;14.40;94.90;;;;;;5069880;28;20466;-66
2023/06/12 02:31:59;;;;;;;8.50;7.80;;;14.40;94.90;;;;;;5069908;28;20443;-66
2023/06/12 02:34:27;;;;;;;8.57;7.70;;;14.50;94.40;;;;;;5068769;28;20443;-66
2023/06/12 02:36:55;;;;;;;7.67;7.03;;;14.60;95.20;;;;;;5069542;28;20995;-66
2023/06/12 02:39:25;;;;;;;7.87;7.07;;;14.60;94.60;;;;;;5069690;28;20447;-66
2023/06/12 02:41:53;;;;;;;8.70;7.90;;;14.70;94.00;;;;;;5069529;28;20838;-66
2023/06/12 02:44:20;;;;;;;9.67;8.67;;;14.80;94.10;;;;;;5068475;28;20467;-66
2023/06/12 02:46:53;;;;;;;8.67;7.80;;;14.70;95.10;;;;;;5069209;28;20566;-66
2023/06/12 02:49:22;;;;;;;7.67;7.00;;;14.70;94.20;;;;;;5069749;28;20440;-66
2023/06/12 02:51:50;;;;;;;8.73;7.83;;;14.80;94.40;;;;;;5069621;28;20491;-66
2023/06/12 02:54:20;;;;;;;9.43;8.63;;;14.80;94.10;;;;;;5068112;28;20490;-66
2023/06/12 02:56:49;;;;;;;9.07;8.27;;;14.80;94.10;;;;;;5069782;28;20513;-66
2023/06/12 02:59:19;;;;;;;9.70;9.00;;;14.70;95.10;;;;;;5069398;28;20448;-66
2023/06/12 03:01:47;;;;;;;9.10;8.30;;;14.70;98.40;;;;;;5070269;28;20450;-66
2023/06/12 03:04:18;;;;;;;10.50;9.70;;;14.60;97.40;;;;;;5068269;28;20529;-66
2023/06/12 03:06:47;;;;;;;9.40;8.50;;;14.50;99.30;;;;;;5069850;28;20539;-66
2023/06/12 03:09:16;;;;;;;11.50;8.43;;;14.30;98.50;;;;;;5069261;28;20439;-66
2023/06/12 03:11:45;;;;;;;9.47;8.67;;;14.20;97.40;;;;;;5069708;28;20827;-66
2023/06/12 03:14:14;;;;;;;10.60;9.70;;;14.10;98.10;;;;;;5067997;28;20809;-66
2023/06/12 03:16:43;;;;;;;9.90;9.10;;;14.20;99.90;;;;;;5069686;28;20818;-66
2023/06/12 03:19:11;;;;;;;9.43;8.63;;;14.10;98.10;;;;;;5069239;28;20473;-66
2023/06/12 03:21:39;;;;;;;10.07;9.20;;;14.00;99.10;;;;;;5069357;28;20446;-66
2023/06/12 03:24:07;;;;;;;10.50;9.60;;;14.00;98.10;;;;;;5068123;28;20443;-65
2023/06/12 03:26:35;;;;;;;10.03;9.20;;;14.00;99.90;;;;;;5068863;28;20497;-65
2023/06/12 03:29:03;;;;;;;9.80;9.00;;;13.90;99.90;;;;;;5069211;28;20542;-65
2023/06/12 03:31:33;;;;;;;10.47;9.60;;;14.00;99.90;;;;;;5069002;28;20473;-65
2023/06/12 03:34:01;;;;;;;9.80;9.00;;;14.00;99.90;;;;;;5068054;28;20508;-66
2023/06/12 03:36:29;;;;;;;9.57;8.77;;;14.00;99.90;;;;;;5068811;28;20929;-65
2023/06/12 03:38:57;;;;;;;8.33;7.73;;;14.00;99.90;;;;;;5068775;28;21139;-65
2023/06/12 03:41:26;;;;;;;8.80;8.10;;;14.00;99.10;;;;;;5068942;28;21216;-65
2023/06/12 03:43:54;;;;;;;9.10;8.30;;;14.00;98.30;;;;;;5067800;28;20485;-65
2023/06/12 03:46:22;;;;;;;10.17;9.23;;;13.90;98.70;;;;;;5069249;28;20492;-65
2023/06/12 03:48:51;;;;;;;9.83;8.90;;;13.80;99.90;;;;;;5068866;28;20506;-65
2023/06/12 03:51:19;;;;;;;9.73;8.83;;;13.80;99.90;;;;;;5069008;28;20462;-67
2023/06/12 03:53:47;;;;;;;8.87;8.10;;;13.90;99.90;;;;;;5067370;28;20946;-65
2023/06/12 03:56:15;;;;;;;10.37;9.47;;;13.90;99.90;;;;;;5069035;28;21018;-65
2023/06/12 03:58:43;;;;;;;10.00;9.00;;;13.90;99.90;;;;;;5068783;28;20481;-65
2023/06/12 04:01:11;;;;;;;9.90;9.00;;;13.90;99.90;;;;;;5068902;28;20468;-65
2023/06/12 04:03:39;;;;;;;9.57;8.67;;;13.90;99.90;;;;;;5067406;28;20529;-65
2023/06/12 04:06:09;;;;;;;9.90;9.07;;;13.80;99.90;;;;;;5070576;28;20443;-65
2023/06/12 04:08:38;;;;;;;10.67;9.50;;;13.90;99.90;;;;;;5072510;28;20471;-66
2023/06/12 04:11:08;;;;;;;10.03;9.13;;;13.90;99.90;;;;;;5072386;28;20461;-66
2023/06/12 04:13:37;;;;;;;11.00;9.83;;;14.00;99.90;;;;;;5071303;28;20500;-66
2023/06/12 04:16:05;;;;;;;9.23;8.53;;;14.00;99.90;;;;;;5072169;28;20449;-66
2023/06/12 04:18:33;;;;;;;10.23;9.33;;;14.10;99.90;;;;;;5072026;28;20489;-67
2023/06/12 04:21:02;;;;;;;9.80;8.80;;;14.30;99.90;;;;;;5072150;28;20552;-66
2023/06/12 04:23:32;;;;;;;9.87;9.00;;;14.40;99.90;;;;;;5071158;28;20457;-67
2023/06/12 04:26:04;;;;;;;10.23;9.20;;;14.40;99.90;;;;;;5071961;28;20497;-67
2023/06/12 04:28:32;;;;;;;9.40;8.50;;;14.40;99.90;;;;;;5072223;28;20561;-66
2023/06/12 04:31:00;;;;;;;11.93;10.73;;;14.40;99.90;;;;;;5071739;28;20546;-67
2023/06/12 04:33:30;;;;;;;11.00;10.00;;;14.40;98.90;;;;;;5070978;28;20440;-67
2023/06/12 04:36:00;;;;;;;11.20;10.10;;;14.50;99.40;;;;;;5072291;28;20449;-66
2023/06/12 04:38:30;;;;;;;11.20;10.10;;;14.60;99.90;;;;;;5072165;28;20450;-67
2023/06/12 04:41:00;;;;;;;11.33;10.20;;;14.80;99.90;;;;;;5072232;28;20559;-67
2023/06/12 04:43:28;;;;;;;10.57;9.67;;;14.80;99.70;;;;;;5070758;28;20451;-68
2023/06/12 04:45:56;;;;;;;12.10;10.37;;;14.80;99.90;;;;;;5071876;28;20466;-66
2023/06/12 04:48:26;;;;;;;10.90;10.00;;;14.80;99.90;;;;;;5071752;28;20483;-67
2023/06/12 04:50:54;;;;;;;10.83;9.83;;;14.90;99.90;;;;;;5072289;28;20918;-64
2023/06/12 04:53:27;;;;;;;11.20;10.10;;;15.00;99.80;;;;;;5070562;28;20495;-66
2023/06/12 04:55:56;;;;;;;10.93;9.83;;;15.00;99.90;;;;;;5071904;28;20493;-65
2023/06/12 04:58:25;;;;;;;12.17;10.93;;;15.10;99.70;;;;;;5072060;28;20439;-64
2023/06/12 05:00:55;;;;;;;13.17;11.87;;;15.20;98.80;;;;;;5060649;28;20467;-63
2023/06/12 05:03:25;;;;;;;11.73;10.43;;;15.40;98.50;;;;;;5053885;28;20509;-64
2023/06/12 05:05:56;;;;;;;11.23;10.17;;;15.40;98.60;;;;;;5060178;28;20442;-63
2023/06/12 05:08:24;;;;;;;11.60;10.57;;;15.60;99.80;;;;;;5061996;28;20503;-64
2023/06/12 05:10:53;;;;;;;11.10;10.00;;;15.70;99.00;;;;;;5071737;28;20575;-64
2023/06/12 05:13:21;;;;;;;12.00;10.93;;;15.80;99.90;;;;;;5069850;28;20442;-65
2023/06/12 05:15:51;;;;;;;13.03;10.70;;;15.90;99.10;;;;;;5070788;28;20872;-64
2023/06/12 05:18:19;;;;;;;10.80;9.80;;;15.90;99.10;;;;;;5071262;28;20515;-64
2023/06/12 05:20:47;;;;;;;11.50;10.60;;;15.90;99.50;;;;;;5070975;28;20499;-64
2023/06/12 05:23:15;;;;;;;11.20;10.30;;;16.00;98.90;;;;;;5069853;28;20814;-65
2023/06/12 05:25:43;;;;;;;12.20;11.10;;;16.10;99.10;;;;;;5071407;28;20461;-65
2023/06/12 05:28:11;;;;;;;11.53;10.60;;;16.20;99.50;;;;;;5071203;28;20589;-64
2023/06/12 05:30:39;;;;;;;9.83;8.90;;;16.20;98.90;;;;;;5071050;28;20469;-63
2023/06/12 05:33:08;;;;;;;11.57;9.00;;;16.40;96.70;;;;;;5065190;28;20541;-64
2023/06/12 05:35:36;;;;;;;9.27;8.47;;;16.50;96.90;;;;;;5070667;28;20515;-64
2023/06/12 05:38:04;;;;;;;11.03;10.13;;;16.60;95.50;;;;;;5071366;28;20443;-66
2023/06/12 05:40:32;;;;;;;9.53;8.67;;;16.80;94.60;;;;;;5071106;28;20455;-65
2023/06/12 05:43:00;;;;;;;8.83;8.10;;;16.90;95.20;;;;;;5070002;28;20482;-65
2023/06/12 05:45:28;;;;;;;9.50;8.70;;;17.20;94.10;;;;;;5071460;28;20486;-66
2023/06/12 05:47:56;;;;;;;9.33;8.50;;;17.40;92.50;;;;;;5071185;28;20439;-65
2023/06/12 05:50:25;;;;;;;11.27;9.97;;;17.50;92.70;;;;;;5070753;28;20551;-65
2023/06/12 05:52:53;;;;;;;9.33;8.53;;;17.60;93.20;;;;;;5069906;28;20447;-65
2023/06/12 05:55:21;;;;;;;10.17;9.37;;;17.60;93.60;;;;;;5070824;28;20447;-65
2023/06/12 05:57:49;;;;;;;10.60;9.90;;;17.70;94.30;;;;;;5070876;28;20842;-66
2023/06/12 06:00:22;;;;;;;9.70;8.80;;;17.70;93.00;;;;;;5070954;28;20455;-66
2023/06/12 06:02:50;;;;;;;9.70;8.93;;;17.80;93.20;;;;;;5063907;28;21146;-66
2023/06/12 06:05:18;;;;;;;10.30;9.30;;;17.80;92.70;;;;;;5063958;28;20546;-67
2023/06/12 06:07:50;;;;;;;10.20;9.27;;;17.90;93.40;;;;;;5061151;28;20467;-66
2023/06/12 06:10:18;;;;;;;9.53;8.77;;;18.00;93.60;;;;;;5068803;28;20479;-66
2023/06/12 06:12:46;;;;;;;10.00;9.00;;;18.10;93.10;;;;;;5067978;28;20443;-66
2023/06/12 06:15:14;;;;;;;10.50;9.03;;;18.20;92.30;;;;;;5068590;28;20443;-67
2023/06/12 06:17:42;;;;;;;11.03;9.90;;;18.20;92.50;;;;;;5069191;28;20977;-67
2023/06/12 06:20:12;;;;;;;10.20;9.23;;;18.30;90.90;;;;;;5069079;28;20459;-66
2023/06/12 06:22:41;;;;;;;9.63;8.80;;;18.50;91.70;;;;;;5067944;28;20493;-69
2023/06/12 06:25:10;;;;;;;9.40;8.53;;;18.50;90.40;;;;;;5069218;28;20471;-65
2023/06/12 06:27:39;;;;;;;9.73;8.90;;;18.70;91.00;;;;;;5068529;28;20436;-66
2023/06/12 06:30:07;;;;;;;9.90;9.10;;;18.90;89.80;;;;;;5068309;28;20479;-67
2023/06/12 06:32:36;;;;;;;9.47;8.67;;;19.10;89.20;;;;;;5067748;28;20492;-66
2023/06/12 06:35:04;;;;;;;10.20;9.37;;;19.10;88.60;;;;;;5069957;28;20816;-66
2023/06/12 06:37:32;;;;;;;11.13;10.13;;;19.20;88.20;;;;;;5069584;28;20443;-66
2023/06/12 06:40:00;;;;;;;9.33;8.47;;;19.30;89.80;;;;;;5068714;28;20455;-67
2023/06/12 06:42:30;;;;;;;9.70;8.60;;;19.40;90.00;;;;;;5067725;28;20524;-67
2023/06/12 06:44:58;;;;;;;10.03;9.20;;;19.50;89.40;;;;;;5068738;28;21006;-67
2023/06/12 06:47:26;;;;;;;8.90;8.20;;;19.60;88.50;;;;;;5068961;28;20862;-67
2023/06/12 06:49:56;;;;;;;9.20;8.50;;;19.70;88.00;;;;;;5069144;28;20479;-66
2023/06/12 06:52:24;;;;;;;9.00;8.40;;;19.80;86.60;;;;;;5068421;28;20816;-66
2023/06/12 06:54:52;;;;;;;15.00;8.77;;;19.90;85.50;;;;;;5068360;28;20455;-66
2023/06/12 06:57:22;;;;;;;11.40;8.63;;;20.10;83.10;;;;;;5069195;28;20435;-66
2023/06/12 06:59:54;;;;;;;9.10;8.30;;;20.30;83.00;;;;;;5068471;28;20961;-66
2023/06/12 07:02:22;;;;;;;9.23;8.30;;;20.40;84.80;;;;;;5067900;28;20439;-66
2023/06/12 07:04:51;;;;;;;9.43;8.50;;;20.60;81.80;;;;;;5068183;28;20443;-66
2023/06/12 07:07:19;;;;;;;8.70;7.97;;;20.80;79.60;;;;;;5067492;28;20947;-67
2023/06/12 07:09:47;;;;;;;8.50;7.80;;;21.00;78.00;;;;;;5068113;28;20485;-67
2023/06/12 07:12:15;;;;;;;8.60;7.80;;;21.20;79.30;;;;;;5067636;28;20451;-66
2023/06/12 07:14:43;;;;;;;9.33;8.63;;;21.30;77.30;;;;;;5067184;28;20541;-67
2023/06/12 07:17:12;;;;;;;8.43;7.73;;;21.40;78.10;;;;;;5067613;28;20447;-67
2023/06/12 07:19:40;;;;;;;10.30;9.40;;;21.50;77.00;;;;;;5067212;28;20460;-67
2023/06/12 07:22:08;;;;;;;8.70;7.30;;;21.60;78.40;;;;;;5067522;28;20462;-67
2023/06/12 07:24:36;;;;;;;8.20;7.60;;;21.80;74.80;;;;;;5059154;28;20984;-66
2023/06/12 07:27:05;;;;;;;9.00;8.20;;;21.90;73.70;;;;;;5049873;28;20498;-67
2023/06/12 07:29:33;;;;;;;10.23;8.50;;;22.00;74.00;;;;;;5048475;28;21062;-66
2023/06/12 07:32:01;;;;;;;12.17;7.67;;;22.10;75.10;;;;;;5048801;28;20463;-66
2023/06/12 07:34:30;;;;;;;13.63;8.90;;;22.20;73.00;;;;;;5048445;28;20871;-66
2023/06/12 07:37:00;;;;;;;10.03;8.00;;;22.30;73.30;;;;;;5049420;28;20538;-66
2023/06/12 07:39:28;;;;;;;9.30;8.47;;;22.40;71.70;;;;;;5050479;28;20450;-66
2023/06/12 07:41:57;;;;;;;9.07;8.40;;;22.50;71.40;;;;;;5053314;28;20475;-66
2023/06/12 07:44:31;;;;;;;8.30;7.70;;;22.50;71.70;;;;;;5052241;28;20448;-66
2023/06/12 07:47:00;;;;;;;11.73;8.30;;;22.60;69.50;;;;;;5053183;28;20443;-66
2023/06/12 07:49:28;;;;;;;8.47;7.77;;;22.70;68.90;;;;;;5050043;28;20502;-66
2023/06/12 07:51:57;;;;;;;9.00;8.30;;;22.80;68.20;;;;;;5063530;28;20439;-66
2023/06/12 07:54:25;;;;;;;8.53;7.93;;;22.90;67.50;;;;;;5064580;28;20476;-66
2023/06/12 07:56:53;;;;;;;8.70;8.00;;;23.00;67.60;;;;;;5071565;28;20447;-66
2023/06/12 07:59:21;;;;;;;8.30;7.70;;;23.10;66.60;;;;;;5066901;28;20443;-66
2023/06/12 08:01:49;;;;;;;8.07;7.43;;;23.20;66.00;;;;;;5031443;28;20437;-67
2023/06/12 08:04:17;;;;;;;7.70;7.13;;;23.30;65.30;;;;;;5046733;28;20444;-66
2023/06/12 08:06:47;;;;;;;7.93;7.30;;;23.40;62.40;;;;;;5036788;28;20438;-66
2023/06/12 08:09:16;;;;;;;7.87;7.27;;;23.50;63.80;;;;;;5041492;28;20445;-67
2023/06/12 08:11:45;;;;;;;9.17;8.30;;;23.70;63.70;;;;;;5044750;28;20428;-66
2023/06/12 08:14:13;;;;;;;8.40;7.80;;;23.80;61.90;;;;;;5033306;28;20448;-67
2023/06/12 08:16:41;;;;;;;9.03;8.33;;;23.80;61.00;;;;;;5046548;28;21014;-66
2023/06/12 08:19:10;;;;;;;8.00;7.40;;;23.90;61.70;;;;;;5036171;28;20444;-66
2023/06/12 08:21:38;;;;;;;9.40;8.60;;;24.00;60.70;;;;;;5042270;28;20439;-66
2023/06/12 08:24:07;;;;;;;8.20;7.60;;;24.00;57.80;;;;;;5032322;28;20833;-66
2023/06/12 08:26:37;;;;;;;8.73;7.87;;;24.00;58.40;;;;;;5046977;28;20511;-66
2023/06/12 08:29:05;;;;;;;8.80;8.13;;;24.10;60.90;;;;;;5038299;28;20486;-66
2023/06/12 08:31:33;;;;;;;9.43;8.57;;;24.40;60.80;;;;;;5038419;28;21102;-66
2023/06/12 08:34:02;;;;;;;8.70;8.10;;;24.70;59.20;;;;;;5045176;28;21097;-66
2023/06/12 08:36:29;;;;;;;9.07;8.27;;;24.90;56.80;;;;;;5033476;28;20531;-66
2023/06/12 08:38:57;;;;;;;8.60;8.00;;;24.70;56.20;;;;;;5042638;28;20531;-66
2023/06/12 08:41:27;;;;;;;7.80;7.20;;;24.60;56.00;;;;;;5041105;28;20460;-66
2023/06/12 08:43:59;;;;;;;7.47;6.77;;;24.90;55.20;;;;;;5034430;28;20520;-65
2023/06/12 08:46:30;;;;;;;7.03;6.50;;;25.20;52.80;;;;;;5035479;28;20460;-66
2023/06/12 08:49:00;;;;;;;8.00;7.40;;;25.50;52.00;;;;;;5037896;28;21072;-65
2023/06/12 08:51:30;;;;;;;7.30;6.63;;;25.80;54.20;;;;;;5038049;28;20904;-66
2023/06/12 08:54:00;;;;;;;7.67;7.07;;;26.00;50.00;;;;;;5044802;28;20542;-66
2023/06/12 08:56:29;;;;;;;7.33;6.73;;;26.10;48.80;;;;;;5033639;28;20437;-67
2023/06/12 08:58:58;;;;;;;7.30;6.80;;;26.20;48.30;;;;;;5043163;28;21017;-65
2023/06/12 09:01:28;;;;;;;8.10;7.50;;;26.40;48.30;;;;;;5041127;28;20460;-66
2023/06/12 09:04:01;;;;;;;7.87;7.30;;;26.40;48.10;;;;;;5033811;28;21063;-68
2023/06/12 09:06:34;;;;;;;8.13;7.57;;;26.50;47.20;;;;;;5046830;28;20486;-66
2023/06/12 09:09:03;;;;;;;7.17;6.70;;;26.70;46.80;;;;;;5037660;28;20436;-65
2023/06/12 09:11:31;;;;;;;8.33;7.63;;;26.60;47.70;;;;;;5038132;28;20560;-65
2023/06/12 09:14:02;;;;;;;7.97;7.27;;;26.70;50.60;;;;;;5035768;28;20536;-66
2023/06/12 09:16:30;;;;;;;7.60;7.03;;;26.80;47.00;;;;;;5032713;28;20428;-65
2023/06/12 09:18:58;;;;;;;8.10;7.50;;;27.10;47.60;;;;;;5042790;28;20541;-66
2023/06/12 09:21:28;;;;;;;8.17;7.53;;;26.90;48.20;;;;;;5040928;28;20472;-66
2023/06/12 09:23:56;;;;;;;8.43;7.87;;;26.40;46.00;;;;;;5033437;28;20443;-67
2023/06/12 09:26:24;;;;;;;8.23;7.50;;;26.00;46.90;;;;;;5046123;28;20432;-66
2023/06/12 09:28:54;;;;;;;8.33;7.70;;;26.00;46.50;;;;;;5035856;28;20438;-66
2023/06/12 09:31:24;;;;;;;7.43;6.70;;;26.00;46.30;;;;;;5038759;28;20488;-66
2023/06/12 09:33:53;;;;;;;7.97;7.20;;;26.00;47.70;;;;;;5043163;28;20460;-67
2023/06/12 09:36:26;;;;;;;8.50;7.80;;;25.90;47.20;;;;;;5033055;28;20442;-66
2023/06/12 09:38:54;;;;;;;9.03;7.77;;;25.80;47.90;;;;;;5042734;28;20800;-66
2023/06/12 09:41:24;;;;;;;8.23;7.70;;;26.00;48.20;;;;;;5039596;28;20543;-66
2023/06/12 09:43:53;;;;;;;7.90;7.20;;;26.00;46.00;;;;;;5033520;28;20943;-66
2023/06/12 09:46:26;;;;;;;6.70;6.10;;;26.20;45.80;;;;;;5045341;28;20444;-66
2023/06/12 09:48:57;;;;;;;7.37;6.77;;;26.70;46.30;;;;;;5035730;28;20439;-66
2023/06/12 09:51:26;;;;;;;8.00;7.30;;;27.30;46.50;;;;;;5038013;28;20477;-66
2023/06/12 09:53:58;;;;;;;7.40;6.70;;;27.80;45.20;;;;;;5042054;28;20526;-66
2023/06/12 09:56:26;;;;;;;8.33;7.30;;;28.00;43.90;;;;;;5032457;28;20488;-66
2023/06/12 09:59:00;;;;;;;7.20;6.60;;;28.20;45.30;;;;;;5042420;28;20444;-66
2023/06/12 10:01:39;;;;;;;7.60;7.10;;;28.60;41.60;;;;;;5040049;28;21129;-67
2023/06/12 10:04:12;;;;;;;7.30;6.80;;;28.50;39.50;;;;;;5030024;28;20441;-67
2023/06/12 10:06:42;;;;;;;7.63;7.13;;;28.30;40.60;;;;;;5034403;28;20448;-66
2023/06/12 10:09:11;;;;;;;7.40;6.80;;;28.70;39.40;;;;;;5030247;28;20445;-66
2023/06/12 10:11:39;;;;;;;6.80;6.30;;;29.20;39.10;;;;;;5029026;28;20472;-66
2023/06/12 10:14:07;;;;;;;7.20;6.60;;;29.80;39.60;;;;;;5027775;28;20445;-66
2023/06/12 10:16:42;;;;;;;6.80;6.20;;;29.90;37.70;;;;;;5029413;28;20491;-65
2023/06/12 10:19:11;;;;;;;7.03;6.50;;;29.70;38.40;;;;;;5030747;28;20436;-65
2023/06/12 10:21:40;;;;;;;6.77;6.23;;;29.80;38.60;;;;;;5030318;28;20437;-66
2023/06/12 10:24:08;;;;;;;7.00;6.40;;;29.90;38.10;;;;;;5029392;28;20451;-66
2023/06/12 10:26:37;;;;;;;6.90;6.40;;;30.30;37.80;;;;;;5030506;28;20469;-66
2023/06/12 10:29:27;;;;;;;6.77;6.27;;;30.70;37.60;;;;;;5030296;28;20441;-66
2023/06/12 10:32:06;;;;;;;7.40;6.80;;;31.30;37.20;;;;;;5030372;28;20473;-66
2023/06/12 10:34:40;;;;;;;7.20;6.43;;;31.80;35.60;;;;;;5029691;28;20476;-66
2023/06/12 10:37:22;;;;;;;7.00;6.47;;;31.20;33.60;;;;;;5030549;28;20440;-66
2023/06/12 10:40:07;;;;;;;6.80;6.30;;;30.50;36.30;;;;;;5030225;28;20998;-66
2023/06/12 10:42:51;;;;;;;7.10;6.60;;;30.90;36.70;;;;;;5029349;28;20993;-66
2023/06/12 10:45:22;;;;;;;7.60;7.00;;;31.30;35.00;;;;;;5030170;28;20824;-66
2023/06/12 10:48:17;;;;;;;6.70;6.10;;;31.40;35.10;;;;;;5030398;28;20444;-66
2023/06/12 10:50:49;;;;;;;7.00;6.50;;;31.90;34.60;;;;;;5026129;28;20489;-66
2023/06/12 10:53:22;;;;;;;6.47;6.07;;;31.90;32.60;;;;;;5029231;28;20491;-66
2023/06/12 10:55:54;;;;;;;6.57;6.07;;;31.40;35.90;;;;;;5030178;28;20444;-66
2023/06/12 10:58:25;;;;;;;6.20;5.80;;;31.20;33.90;;;;;;5030210;28;20463;-66
2023/06/12 11:00:54;;;;;;;6.37;5.90;;;31.40;35.70;;;;;;5029828;28;20464;-66
2023/06/12 11:03:25;;;;;;;8.53;6.60;;;31.90;32.90;;;;;;5029041;28;20535;-66
2023/06/12 11:05:56;;;;;;;6.97;6.37;;;31.90;33.40;;;;;;5029802;28;20499;-66
2023/06/12 11:08:27;;;;;;;6.80;6.40;;;31.70;34.10;;;;;;5029818;28;20452;-66
2023/06/12 11:10:55;;;;;;;6.53;5.93;;;32.00;33.50;;;;;;5029538;28;20459;-67
2023/06/12 11:13:24;;;;;;;6.70;6.20;;;32.40;33.60;;;;;;5028727;28;20536;-66
2023/06/12 11:15:53;;;;;;;6.50;6.10;;;33.10;33.70;;;;;;5029550;28;20441;-66
2023/06/12 11:18:23;;;;;;;7.83;7.27;;;33.30;33.70;;;;;;5029670;28;20448;-66
2023/06/12 11:20:54;;;;;;;7.30;6.67;;;33.40;33.20;;;;;;5029505;28;20456;-66
2023/06/12 11:23:24;;;;;;;7.43;6.73;;;33.30;31.80;;;;;;5027873;28;20436;-66
2023/06/12 11:25:54;;;;;;;6.73;6.33;;;33.00;32.10;;;;;;5029983;28;20804;-67
2023/06/12 11:28:24;;;;;;;8.67;5.83;;;32.30;32.90;;;;;;5026415;28;20978;-67
2023/06/12 11:30:53;;;;;;;8.23;6.30;;;32.20;34.60;;;;;;5044669;28;20460;-66
2023/06/12 11:33:37;;;;;;;6.90;6.30;;;32.70;32.80;;;;;;5045680;28;20417;-66
2023/06/12 11:36:06;;;;;;;6.93;6.07;;;33.20;32.00;;;;;;5026686;28;20457;-66
2023/06/12 11:38:35;;;;;;;7.10;5.90;;;33.50;34.40;;;;;;5041884;28;20445;-66
2023/06/12 11:41:11;;;;;;;6.33;5.83;;;33.90;29.50;;;;;;4999448;28;20450;-66
2023/06/12 11:43:39;;;;;;;6.77;6.27;;;33.00;30.10;;;;;;4983988;28;20445;-66
2023/06/12 11:46:07;;;;;;;6.27;5.67;;;33.20;31.20;;;;;;4993248;28;20430;-66
2023/06/12 11:48:36;;;;;;;6.50;5.60;;;33.70;29.90;;;;;;4991997;28;20443;-66
2023/06/12 11:51:08;;;;;;;6.53;6.03;;;33.80;32.60;;;;;;4923610;29;20468;-66
2023/06/12 11:53:36;;;;;;;6.93;6.43;;;34.20;32.40;;;;;;4921672;29;20566;-67
2023/06/12 11:56:05;;;;;;;5.77;5.37;;;34.60;28.10;;;;;;4915690;29;20991;-66
2023/06/12 11:58:36;;;;;;;7.40;6.43;;;34.40;30.00;;;;;;4922737;29;20452;-67
2023/06/12 12:01:12;;;;;;;6.17;5.77;;;34.70;29.00;;;;;;4962108;28;20554;-68
2023/06/12 12:03:44;;;;;;;6.23;5.80;;;35.40;29.90;;;;;;4959954;28;20440;-66
2023/06/12 12:06:13;;;;;;;7.00;6.50;;;35.70;27.30;;;;;;4949658;28;20853;-66
2023/06/12 12:08:42;;;;;;;6.57;6.07;;;35.40;28.50;;;;;;4978481;28;20440;-68
2023/06/12 12:11:18;;;;;;;6.67;6.17;;;35.20;28.10;;;;;;5036071;28;20456;-66
2023/06/12 12:13:52;;;;;;;7.80;6.40;;;35.50;28.10;;;;;;5031672;28;20534;-66
2023/06/12 12:16:25;;;;;;;6.27;5.70;;;34.60;29.50;;;;;;5043514;28;20440;-66
2023/06/12 12:18:56;;;;;;;6.77;6.27;;;34.70;29.50;;;;;;5033615;28;20522;-66
2023/06/12 12:21:25;;;;;;;6.33;5.90;;;34.80;29.90;;;;;;5035957;28;20537;-66
2023/06/12 12:23:54;;;;;;;6.13;5.53;;;34.70;29.90;;;;;;5040694;28;20444;-66
2023/06/12 12:26:22;;;;;;;6.00;5.60;;;35.10;29.10;;;;;;5030677;28;20472;-66
2023/06/12 12:28:51;;;;;;;6.93;6.27;;;35.60;28.40;;;;;;5044336;28;20495;-67
2023/06/12 12:31:19;;;;;;;6.93;6.33;;;35.70;28.40;;;;;;5040589;28;21024;-67
2023/06/12 12:33:48;;;;;;;6.70;6.17;;;36.00;29.20;;;;;;5034948;28;20531;-66
2023/06/12 12:36:20;;;;;;;6.83;6.30;;;35.80;27.50;;;;;;5046481;28;20444;-66
2023/06/12 12:38:48;;;;;;;6.83;6.23;;;36.20;29.30;;;;;;5036602;28;20467;-66
2023/06/12 12:41:17;;;;;;;7.07;6.60;;;36.90;27.80;;;;;;5040639;28;20503;-66
2023/06/12 12:43:45;;;;;;;6.50;6.10;;;36.90;27.10;;;;;;5043144;28;20938;-65
2023/06/12 12:46:13;;;;;;;5.80;5.30;;;35.70;25.10;;;;;;5033876;28;20445;-65
2023/06/12 12:48:41;;;;;;;6.43;5.93;;;34.90;29.50;;;;;;5045645;28;20441;-65
2023/06/12 12:51:09;;;;;;;6.40;5.90;;;35.40;28.00;;;;;;5039466;28;20851;-66
2023/06/12 12:53:40;;;;;;;7.13;6.60;;;35.80;25.50;;;;;;5036440;28;20861;-66
2023/06/12 12:56:08;;;;;;;6.03;5.50;;;36.10;26.10;;;;;;5047323;28;20458;-66